Time;durP1;ratioP1;P1;durP2;ratioP2;P2;SDS_P1;SDS_P2;PMS_P1;PMS_P2;Temp;Humidity;BMP_temperature;BMP_pressure;BME280_temperature;BME280_humidity;BME280_pressure;Samples;Min_cycle;Max_cycle;Signal;HPM_P1;HPM_P2
2021/07/25 00:00:45;;;;;;;2.95;1.90;;;19.00;80.30;;;;;;4987827;28;20047;-90
2021/07/25 00:03:20;;;;;;;2.75;1.88;;;19.10;80.30;;;;;;4926756;29;20091;-90
2021/07/25 00:05:54;;;;;;;3.10;2.03;;;19.00;80.40;;;;;;4944650;29;20079;-90
2021/07/25 00:08:31;;;;;;;3.03;2.33;;;19.00;80.40;;;;;;4916458;29;20080;-89
2021/07/25 00:10:59;;;;;;;2.80;2.00;;;19.00;80.40;;;;;;4900784;29;20050;-90
2021/07/25 00:13:40;;;;;;;3.30;1.80;;;18.90;80.40;;;;;;4869896;29;20040;-90
2021/07/25 00:16:12;;;;;;;2.05;1.60;;;18.90;80.50;;;;;;4866721;29;20045;-89
2021/07/25 00:18:40;;;;;;;2.03;1.63;;;18.90;80.50;;;;;;4865604;29;20495;-89
2021/07/25 00:21:14;;;;;;;2.72;1.83;;;18.90;80.60;;;;;;4847359;29;20041;-89
2021/07/25 00:23:46;;;;;;;2.25;1.67;;;18.80;80.60;;;;;;4843977;29;20045;-89
2021/07/25 00:26:14;;;;;;;3.03;2.08;;;18.80;80.60;;;;;;4859386;29;20452;-89
2021/07/25 00:28:40;;;;;;;2.70;1.67;;;18.80;80.60;;;;;;4874246;29;20060;-89
2021/07/25 00:31:08;;;;;;;3.40;2.03;;;18.80;80.60;;;;;;4885855;29;20041;-89
2021/07/25 00:33:39;;;;;;;2.53;1.77;;;18.80;80.70;;;;;;4862655;29;20105;-89
2021/07/25 00:36:05;;;;;;;;;;;18.80;80.70;;;;;;4895954;29;20495;-89
2021/07/25 00:38:31;;;;;;;1.55;1.40;;;18.80;80.70;;;;;;4899505;29;19915;-88
2021/07/25 00:41:07;;;;;;;2.35;1.70;;;18.70;80.70;;;;;;4884203;29;20112;-88
2021/07/25 00:43:32;;;;;;;2.15;1.65;;;18.80;81.00;;;;;;4901037;29;20130;-89
2021/07/25 00:46:01;;;;;;;2.22;1.63;;;18.60;81.00;;;;;;4889966;28;20130;-89
2021/07/25 00:48:32;;;;;;;3.35;2.20;;;18.60;81.10;;;;;;4877226;29;20200;-89
2021/07/25 00:50:59;;;;;;;2.38;1.65;;;18.60;81.10;;;;;;4863105;29;20056;-89
2021/07/25 00:53:25;;;;;;;2.38;1.70;;;18.50;81.10;;;;;;4862459;29;20122;-89
2021/07/25 00:55:51;;;;;;;2.58;1.77;;;18.70;81.10;;;;;;4883546;29;20040;-89
2021/07/25 00:58:22;;;;;;;1.65;1.35;;;18.70;81.10;;;;;;4897991;29;20079;-89
2021/07/25 01:00:48;;;;;;;3.47;2.10;;;18.70;81.10;;;;;;4822051;29;20054;-89
2021/07/25 01:03:40;;;;;;;3.05;1.88;;;18.70;81.10;;;;;;4807070;29;20515;-89
2021/07/25 01:06:38;;;;;;;2.70;1.60;;;18.60;81.20;;;;;;4797403;29;20050;-89
2021/07/25 01:09:39;;;;;;;2.60;1.83;;;18.70;81.20;;;;;;4834792;29;20122;-89
2021/07/25 01:12:18;;;;;;;3.13;2.00;;;18.60;81.10;;;;;;4837615;29;20398;-89
2021/07/25 01:14:48;;;;;;;2.75;1.90;;;18.70;81.10;;;;;;4821126;29;20129;-89
2021/07/25 01:17:40;;;;;;;4.55;2.63;;;18.70;81.20;;;;;;4833708;29;20049;-90
2021/07/25 01:20:10;;;;;;;3.60;2.42;;;18.60;81.30;;;;;;4916638;29;20071;-89
2021/07/25 01:22:47;;;;;;;2.90;1.98;;;18.60;81.30;;;;;;4918025;29;20047;-89
2021/07/25 01:25:17;;;;;;;3.55;2.20;;;18.60;81.30;;;;;;4922169;29;20462;-89
2021/07/25 01:28:05;;;;;;;3.10;1.90;;;18.60;81.40;;;;;;4921327;29;20540;-90
2021/07/25 01:30:43;;;;;;;2.72;1.95;;;18.50;81.40;;;;;;4922187;29;20043;-89
2021/07/25 01:33:15;;;;;;;2.92;1.75;;;18.50;81.50;;;;;;4933000;29;20047;-89
2021/07/25 01:35:53;;;;;;;3.42;2.00;;;18.50;81.60;;;;;;4876800;29;20036;-89
2021/07/25 01:38:32;;;;;;;3.08;1.80;;;18.50;81.60;;;;;;4862040;29;20037;-89
2021/07/25 01:41:16;;;;;;;2.30;1.60;;;18.60;81.60;;;;;;4892544;29;20052;-89
2021/07/25 01:43:58;;;;;;;2.63;1.90;;;18.50;81.60;;;;;;4909485;29;20041;-90
2021/07/25 01:46:37;;;;;;;3.50;1.95;;;18.50;81.60;;;;;;4908619;29;20519;-89
2021/07/25 01:49:08;;;;;;;2.83;1.90;;;18.50;81.60;;;;;;4880177;29;20045;-89
2021/07/25 01:52:00;;;;;;;2.72;1.60;;;18.50;81.60;;;;;;4864309;29;20036;-89
2021/07/25 01:54:28;;;;;;;2.85;1.80;;;18.50;81.70;;;;;;4876772;29;20041;-89
2021/07/25 01:57:06;;;;;;;2.20;1.55;;;18.50;81.70;;;;;;4845713;29;20132;-89
2021/07/25 01:59:42;;;;;;;3.25;2.08;;;18.50;81.80;;;;;;4839377;29;20078;-89
2021/07/25 02:02:19;;;;;;;3.08;2.05;;;18.50;81.80;;;;;;4825309;29;20053;-90
2021/07/25 02:04:53;;;;;;;3.15;2.08;;;18.50;81.80;;;;;;4849569;29;20049;-90
2021/07/25 02:07:19;;;;;;;2.78;1.90;;;18.40;81.90;;;;;;4857581;29;20088;-88
2021/07/25 02:09:45;;;;;;;4.25;2.35;;;18.40;81.90;;;;;;4857686;29;20405;-89
2021/07/25 02:12:14;;;;;;;3.00;2.00;;;18.40;82.00;;;;;;4825777;29;20069;-90
2021/07/25 02:15:01;;;;;;;3.13;2.10;;;18.40;82.00;;;;;;4839886;29;20497;-90
2021/07/25 02:17:44;;;;;;;1.90;1.60;;;18.30;82.00;;;;;;4843473;29;20176;-89
2021/07/25 02:20:22;;;;;;;2.80;2.00;;;18.40;82.20;;;;;;4864851;29;20135;-90
2021/07/25 02:22:48;;;;;;;2.55;1.70;;;18.40;82.10;;;;;;4898375;29;20044;-90
2021/07/25 02:25:22;;;;;;;4.03;2.65;;;18.40;82.70;;;;;;4845846;29;20049;-89
2021/07/25 02:31:11;;;;;;;3.33;2.30;;;18.40;82.30;;;;;;4735382;30;20040;-90
2021/07/25 02:34:00;;;;;;;3.60;2.35;;;18.40;82.30;;;;;;4774701;29;20043;-90
2021/07/25 02:36:47;;;;;;;3.92;2.30;;;18.40;82.40;;;;;;4759309;29;20066;-89
2021/07/25 02:39:16;;;;;;;2.67;1.70;;;18.50;82.50;;;;;;4769575;30;20043;-91
2021/07/25 02:46:00;;;;;;;3.90;2.55;;;18.20;82.50;;;;;;4798164;29;20055;-90
2021/07/25 02:48:28;;;;;;;4.95;3.10;;;18.20;82.60;;;;;;4768752;29;20047;-92
2021/07/25 02:57:56;;;;;;;3.03;2.00;;;18.30;82.90;;;;;;4763059;30;20086;-90
2021/07/25 03:08:55;;;;;;;2.67;1.90;;;18.10;82.90;;;;;;4802558;29;20055;-90
2021/07/25 03:18:36;;;;;;;2.17;1.52;;;18.10;83.00;;;;;;4789484;29;20047;-90
2021/07/25 03:25:45;;;;;;;2.15;1.50;;;18.00;83.10;;;;;;4660488;30;20110;-89
2021/07/25 03:47:41;;;;;;;2.47;1.48;;;17.90;83.10;;;;;;4531004;31;20201;-89
2021/07/25 06:57:27;;;;;;;1.80;1.20;;;19.80;80.10;;;;;;6076265;23;20034;-89
2021/07/25 07:39:28;;;;;;;1.33;1.00;;;21.70;77.80;;;;;;5969406;23;20062;-86
2021/07/25 07:41:54;;;;;;;1.98;1.20;;;21.90;77.50;;;;;;6053366;23;20014;-83
2021/07/25 07:44:27;;;;;;;1.10;1.00;;;22.10;77.40;;;;;;6076033;23;20045;-84
2021/07/25 07:46:52;;;;;;;1.27;1.13;;;22.30;77.00;;;;;;6075486;23;20025;-85
2021/07/25 07:49:18;;;;;;;1.45;1.10;;;22.40;76.70;;;;;;6076450;23;20018;-85
2021/07/25 07:51:44;;;;;;;1.33;1.10;;;22.50;76.90;;;;;;6075715;23;20061;-84
2021/07/25 07:54:52;;;;;;;2.50;1.13;;;22.50;76.70;;;;;;6076655;23;20045;-86
2021/07/25 07:57:17;;;;;;;1.63;0.95;;;22.60;76.80;;;;;;6025076;23;20018;-84
2021/07/25 07:59:43;;;;;;;1.23;1.08;;;22.70;76.90;;;;;;6053960;23;20126;-84
2021/07/25 08:02:09;;;;;;;1.38;1.10;;;22.80;76.70;;;;;;6066091;23;20014;-84
2021/07/25 08:04:38;;;;;;;1.92;1.30;;;22.90;76.80;;;;;;6080275;23;20110;-84
2021/07/25 08:07:04;;;;;;;1.17;1.08;;;23.10;76.30;;;;;;6080732;23;20085;-83
2021/07/25 08:09:30;;;;;;;1.20;1.10;;;23.20;76.10;;;;;;6081684;23;20441;-83
2021/07/25 08:11:55;;;;;;;1.00;0.90;;;23.20;76.20;;;;;;6081651;23;20014;-84
2021/07/25 08:14:21;;;;;;;1.00;0.90;;;23.30;76.30;;;;;;6055183;23;20073;-84
2021/07/25 08:16:48;;;;;;;1.15;1.05;;;23.40;76.10;;;;;;6081032;23;20020;-83
2021/07/25 08:19:14;;;;;;;1.38;1.20;;;23.60;75.90;;;;;;6099494;23;20018;-83
2021/07/25 08:21:41;;;;;;;1.30;1.10;;;23.60;75.70;;;;;;6074367;23;20142;-85
2021/07/25 08:24:07;;;;;;;1.23;1.10;;;23.50;75.80;;;;;;6076222;23;20011;-84
2021/07/25 08:26:34;;;;;;;1.42;1.10;;;23.60;76.10;;;;;;6073852;23;20447;-83
2021/07/25 08:29:01;;;;;;;1.02;0.90;;;23.70;75.80;;;;;;6056019;23;19998;-83
2021/07/25 08:31:26;;;;;;;1.48;1.10;;;23.80;75.60;;;;;;6118831;23;20029;-83
2021/07/25 08:33:52;;;;;;;1.30;1.20;;;24.00;75.40;;;;;;6262583;23;20012;-82
2021/07/25 08:36:18;;;;;;;2.38;1.27;;;24.10;75.10;;;;;;6238363;23;20008;-83
2021/07/25 08:38:44;;;;;;;1.60;1.30;;;23.90;75.20;;;;;;6199680;23;20040;-84
2021/07/25 08:41:15;;;;;;;1.33;1.13;;;23.80;75.50;;;;;;6257728;23;20004;-83
2021/07/25 08:43:44;;;;;;;1.70;1.10;;;23.70;75.80;;;;;;6209814;23;20078;-84
2021/07/25 08:46:15;;;;;;;1.20;1.10;;;23.90;75.90;;;;;;6228524;23;20087;-84
2021/07/25 08:48:47;;;;;;;1.55;1.08;;;24.30;75.40;;;;;;6229073;23;20087;-82
2021/07/25 08:51:23;;;;;;;1.52;1.15;;;24.50;74.80;;;;;;6228125;23;20016;-84
2021/07/25 08:54:00;;;;;;;1.35;1.13;;;24.60;74.20;;;;;;6221824;23;20020;-86
2021/07/25 08:56:29;;;;;;;2.45;1.35;;;24.60;74.40;;;;;;6226594;23;20012;-84
2021/07/25 08:58:59;;;;;;;1.58;1.30;;;24.50;74.40;;;;;;6257753;23;20060;-83
2021/07/25 09:01:31;;;;;;;;;;;24.60;74.40;;;;;;6213212;23;20071;-84
2021/07/25 09:03:57;;;;;;;1.50;1.10;;;24.70;74.50;;;;;;6251885;23;19938;-87
2021/07/25 09:06:24;;;;;;;1.05;0.93;;;24.70;74.20;;;;;;6248905;23;20337;-87
2021/07/25 09:08:50;;;;;;;1.30;1.10;;;24.70;74.50;;;;;;6219968;23;20004;-87
2021/07/25 09:11:18;;;;;;;1.75;1.33;;;24.80;74.30;;;;;;6222240;23;20069;-86
2021/07/25 09:13:45;;;;;;;1.30;1.15;;;25.00;74.10;;;;;;6222684;23;20111;-85
2021/07/25 09:16:10;;;;;;;1.13;1.02;;;24.90;74.00;;;;;;6223135;23;19998;-87
2021/07/25 09:18:38;;;;;;;2.28;1.50;;;25.10;74.50;;;;;;6217018;23;20016;-87
2021/07/25 09:21:04;;;;;;;1.75;1.25;;;25.30;73.80;;;;;;6222140;23;20015;-86
2021/07/25 09:23:30;;;;;;;1.10;1.00;;;25.40;73.10;;;;;;6220765;23;20008;-84
2021/07/25 09:25:57;;;;;;;1.27;1.17;;;25.70;72.70;;;;;;6270967;23;20030;-85
2021/07/25 09:28:26;;;;;;;1.10;1.00;;;25.90;72.40;;;;;;6229927;23;20016;-85
2021/07/25 09:30:52;;;;;;;2.67;1.20;;;25.90;72.30;;;;;;6246231;23;20012;-83
2021/07/25 09:33:33;;;;;;;0.95;0.90;;;26.10;72.20;;;;;;6245490;23;20510;-85
2021/07/25 09:36:03;;;;;;;1.02;1.00;;;26.20;72.20;;;;;;6193650;23;20015;-84
2021/07/25 09:38:29;;;;;;;1.48;1.27;;;26.10;72.20;;;;;;6193670;23;20456;-86
2021/07/25 09:40:55;;;;;;;1.65;1.33;;;26.20;72.30;;;;;;6219334;23;20004;-86
2021/07/25 09:43:25;;;;;;;1.40;1.30;;;26.20;72.10;;;;;;6193697;23;20074;-85
2021/07/25 09:45:54;;;;;;;1.63;1.10;;;26.30;72.00;;;;;;6219649;23;20088;-86
2021/07/25 09:48:22;;;;;;;1.85;1.20;;;26.40;71.80;;;;;;6245966;23;20008;-85
2021/07/25 09:50:49;;;;;;;1.70;1.30;;;26.60;72.00;;;;;;6245738;23;20479;-86
2021/07/25 09:53:16;;;;;;;1.15;1.05;;;26.50;71.50;;;;;;6245846;23;20012;-86
2021/07/25 09:55:43;;;;;;;1.50;1.40;;;26.30;71.50;;;;;;6219091;23;20016;-86
2021/07/25 09:58:09;;;;;;;1.23;1.13;;;26.20;71.70;;;;;;6193886;23;20027;-86
2021/07/25 10:00:43;;;;;;;1.45;1.20;;;26.10;72.20;;;;;;6245375;23;20348;-83
2021/07/25 10:03:32;;;;;;;1.73;1.33;;;26.20;71.90;;;;;;6245914;23;20004;-85
2021/07/25 10:06:18;;;;;;;1.50;1.30;;;26.20;71.70;;;;;;6220445;23;20039;-86
2021/07/25 10:08:45;;;;;;;1.85;1.10;;;26.00;71.90;;;;;;6218332;23;20444;-85
2021/07/25 10:11:19;;;;;;;1.30;1.20;;;25.80;72.10;;;;;;6184962;23;20009;-85
2021/07/25 10:13:47;;;;;;;1.35;1.17;;;25.60;72.50;;;;;;6215239;23;20012;-86
2021/07/25 10:16:18;;;;;;;1.45;1.00;;;25.50;72.80;;;;;;6242698;23;20008;-85
2021/07/25 10:18:48;;;;;;;1.45;1.20;;;25.60;72.70;;;;;;6190868;23;20008;-85
2021/07/25 10:21:14;;;;;;;2.03;1.40;;;25.60;72.50;;;;;;6227049;23;20004;-86
2021/07/25 10:23:47;;;;;;;1.15;1.05;;;25.60;72.40;;;;;;6192903;23;20011;-86
2021/07/25 10:26:13;;;;;;;2.55;1.00;;;25.60;72.40;;;;;;6193225;23;20016;-84
2021/07/25 10:28:41;;;;;;;1.52;1.23;;;25.80;72.20;;;;;;6218921;23;20004;-85
2021/07/25 10:31:08;;;;;;;1.40;1.15;;;26.00;71.60;;;;;;6193121;23;20091;-84
2021/07/25 10:33:35;;;;;;;3.22;1.30;;;26.20;71.00;;;;;;6193399;23;20004;-87
2021/07/25 10:36:03;;;;;;;1.33;1.15;;;26.30;70.50;;;;;;6193479;23;20008;-85
2021/07/25 10:38:29;;;;;;;1.60;1.27;;;26.40;70.60;;;;;;6245627;23;20027;-85
2021/07/25 10:40:56;;;;;;;1.25;1.13;;;26.50;70.30;;;;;;6193649;23;20372;-85
2021/07/25 10:43:25;;;;;;;1.20;1.10;;;26.40;70.00;;;;;;6218571;23;20016;-85
2021/07/25 10:46:17;;;;;;;1.40;1.23;;;26.20;70.20;;;;;;6168858;23;20467;-85
2021/07/25 10:49:09;;;;;;;1.23;1.13;;;26.00;70.90;;;;;;6218297;23;20019;-85
2021/07/25 10:51:48;;;;;;;1.58;1.15;;;25.80;71.20;;;;;;6218564;23;20016;-85
2021/07/25 10:54:29;;;;;;;1.83;1.35;;;25.90;71.30;;;;;;6170317;23;20022;-85
2021/07/25 10:57:02;;;;;;;1.52;1.33;;;26.10;70.70;;;;;;6244662;23;20108;-86
2021/07/25 10:59:48;;;;;;;1.88;1.48;;;26.10;70.00;;;;;;6164123;23;20384;-86
2021/07/25 11:02:52;;;;;;;1.33;1.20;;;25.90;70.30;;;;;;6217656;23;20012;-85
2021/07/25 11:05:19;;;;;;;1.27;1.10;;;25.70;70.80;;;;;;6192844;23;20004;-85
2021/07/25 11:07:57;;;;;;;1.60;1.20;;;25.60;70.90;;;;;;6218672;23;20090;-86
2021/07/25 11:10:31;;;;;;;1.13;1.02;;;25.50;70.70;;;;;;6244284;23;20012;-84
2021/07/25 11:13:13;;;;;;;1.33;1.10;;;25.50;70.90;;;;;;6244435;23;20020;-86
2021/07/25 11:15:38;;;;;;;1.80;1.25;;;25.50;70.70;;;;;;6217843;23;20015;-85
2021/07/25 11:18:09;;;;;;;1.75;1.30;;;25.50;70.60;;;;;;6218153;23;20012;-85
2021/07/25 11:20:50;;;;;;;1.10;1.00;;;25.60;70.50;;;;;;6217648;23;20012;-84
2021/07/25 11:23:33;;;;;;;1.02;0.93;;;25.70;70.40;;;;;;6220019;23;20023;-85
2021/07/25 11:26:31;;;;;;;1.52;1.17;;;25.90;69.90;;;;;;6219970;23;20019;-85
2021/07/25 11:28:57;;;;;;;1.58;1.02;;;25.80;69.60;;;;;;6245928;23;20057;-86
2021/07/25 11:31:33;;;;;;;1.45;0.98;;;25.80;69.80;;;;;;6219320;23;20040;-85
2021/07/25 11:33:59;;;;;;;1.30;1.00;;;25.90;69.70;;;;;;6218839;23;20020;-85
2021/07/25 11:36:25;;;;;;;1.27;1.05;;;26.10;69.20;;;;;;6193848;23;20023;-86
2021/07/25 11:38:55;;;;;;;0.80;0.80;;;26.30;68.70;;;;;;6193839;23;20344;-85
2021/07/25 11:41:22;;;;;;;;;;;26.30;68.40;;;;;;6219688;23;20040;-85
2021/07/25 11:43:59;;;;;;;1.40;1.00;;;26.40;68.20;;;;;;6218822;23;19957;-85
2021/07/25 11:46:28;;;;;;;1.35;1.10;;;26.50;67.90;;;;;;6186621;23;20039;-83
2021/07/25 11:49:13;;;;;;;1.17;0.93;;;26.60;68.00;;;;;;6216553;23;20023;-83
2021/07/25 11:51:46;;;;;;;1.33;1.10;;;26.40;68.10;;;;;;6218833;23;20000;-85
2021/07/25 11:54:14;;;;;;;0.98;0.88;;;26.30;68.30;;;;;;6169775;23;20008;-84
2021/07/25 11:56:53;;;;;;;0.82;0.82;;;26.30;68.60;;;;;;6245894;23;20054;-85
2021/07/25 11:59:19;;;;;;;1.70;1.05;;;26.40;68.20;;;;;;6245501;23;20091;-84
2021/07/25 12:01:45;;;;;;;1.23;1.13;;;26.60;67.70;;;;;;6219284;23;20049;-83
2021/07/25 12:04:21;;;;;;;1.20;1.10;;;26.80;67.30;;;;;;6218975;23;20074;-85
2021/07/25 12:06:57;;;;;;;1.00;0.90;;;26.80;66.80;;;;;;6194103;23;20020;-85
2021/07/25 12:09:23;;;;;;;1.30;1.10;;;26.80;66.90;;;;;;6219519;23;20019;-84
2021/07/25 12:11:58;;;;;;;1.00;0.90;;;26.90;67.00;;;;;;6193937;23;20035;-86
2021/07/25 12:14:27;;;;;;;1.27;0.80;;;27.00;67.00;;;;;;6224579;23;20016;-86
2021/07/25 12:16:53;;;;;;;1.55;1.30;;;27.00;66.50;;;;;;6187847;23;20008;-85
2021/07/25 12:19:20;;;;;;;2.58;1.40;;;27.10;66.40;;;;;;6219562;23;20070;-86
2021/07/25 12:21:47;;;;;;;1.20;1.10;;;27.10;66.20;;;;;;6193817;23;20008;-86
2021/07/25 12:24:27;;;;;;;1.35;1.20;;;27.10;66.10;;;;;;6218018;23;20012;-85
2021/07/25 12:26:52;;;;;;;2.20;1.10;;;27.00;65.90;;;;;;6218621;23;20428;-87
2021/07/25 12:29:38;;;;;;;1.20;1.10;;;26.90;65.80;;;;;;6187501;23;20016;-87
2021/07/25 12:32:18;;;;;;;1.17;1.08;;;26.70;66.20;;;;;;6164930;23;20038;-84
2021/07/25 12:34:44;;;;;;;1.20;1.10;;;26.60;66.50;;;;;;6226280;23;20039;-84
2021/07/25 12:37:27;;;;;;;1.33;1.00;;;26.60;66.60;;;;;;6206987;23;20007;-84
2021/07/25 12:40:07;;;;;;;1.00;0.90;;;26.60;66.60;;;;;;6221806;23;20428;-83
2021/07/25 12:42:45;;;;;;;1.15;0.98;;;26.40;66.60;;;;;;6220488;23;20142;-85
2021/07/25 12:45:27;;;;;;;1.00;0.90;;;26.50;66.60;;;;;;6195282;23;20090;-85
2021/07/25 12:48:07;;;;;;;0.63;0.63;;;26.50;66.50;;;;;;6219361;23;20005;-84
2021/07/25 12:51:01;;;;;;;0.82;0.80;;;26.40;66.70;;;;;;6246605;23;20058;-85
2021/07/25 12:53:32;;;;;;;1.20;0.70;;;26.40;66.80;;;;;;6246057;23;20008;-85
2021/07/25 12:55:59;;;;;;;0.85;0.70;;;26.40;66.70;;;;;;6246688;23;20012;-82
2021/07/25 12:58:28;;;;;;;0.80;0.68;;;26.60;66.70;;;;;;6219184;23;20027;-83
2021/07/25 13:01:06;;;;;;;1.25;0.88;;;26.80;66.80;;;;;;6246248;23;20012;-83
2021/07/25 13:03:48;;;;;;;1.13;0.90;;;26.90;65.60;;;;;;6216529;23;20317;-85
2021/07/25 13:06:17;;;;;;;1.23;0.90;;;27.10;65.50;;;;;;6216084;23;20083;-85
2021/07/25 13:08:45;;;;;;;0.77;0.77;;;27.20;65.10;;;;;;6215773;23;20039;-85
2021/07/25 13:11:13;;;;;;;0.80;0.80;;;27.40;64.80;;;;;;6213855;23;20032;-83
2021/07/25 13:13:41;;;;;;;0.98;0.70;;;27.30;64.40;;;;;;6214720;23;20050;-85
2021/07/25 13:16:10;;;;;;;1.00;0.75;;;27.20;64.70;;;;;;6237379;23;20004;-85
2021/07/25 13:18:36;;;;;;;0.70;0.70;;;27.30;65.60;;;;;;6217816;23;20318;-84
2021/07/25 13:21:02;;;;;;;0.68;0.60;;;27.20;64.90;;;;;;6215846;23;20019;-84
2021/07/25 13:23:27;;;;;;;0.80;0.80;;;27.20;64.80;;;;;;6218836;23;20004;-83
2021/07/25 13:25:53;;;;;;;1.02;0.70;;;27.20;64.70;;;;;;6218424;23;20008;-84
2021/07/25 13:28:19;;;;;;;0.80;0.70;;;27.00;65.00;;;;;;6168964;23;20012;-86
2021/07/25 13:30:44;;;;;;;1.15;0.90;;;26.70;65.30;;;;;;6218791;23;20011;-87
2021/07/25 13:33:10;;;;;;;0.90;0.90;;;26.70;65.60;;;;;;6169011;23;20016;-86
2021/07/25 13:35:36;;;;;;;0.73;0.70;;;26.50;65.50;;;;;;6245170;23;20008;-85
2021/07/25 13:38:02;;;;;;;0.60;0.60;;;26.60;65.70;;;;;;6219042;23;20554;-83
2021/07/25 13:40:27;;;;;;;0.70;0.70;;;26.80;65.60;;;;;;6193599;23;20016;-83
2021/07/25 13:42:53;;;;;;;0.80;0.70;;;26.80;65.20;;;;;;6219258;23;20011;-83
2021/07/25 13:45:19;;;;;;;0.60;0.60;;;26.80;65.00;;;;;;6193673;23;20014;-85
2021/07/25 13:47:45;;;;;;;1.35;0.73;;;26.80;65.00;;;;;;6245174;23;20012;-84
2021/07/25 13:50:12;;;;;;;0.60;0.60;;;26.70;65.10;;;;;;6217893;23;20390;-85
2021/07/25 13:52:39;;;;;;;1.02;0.60;;;26.70;65.10;;;;;;6218402;23;20007;-85
2021/07/25 13:55:06;;;;;;;0.50;0.50;;;26.70;65.10;;;;;;6218670;23;20479;-85
2021/07/25 13:57:31;;;;;;;0.60;0.60;;;26.70;65.00;;;;;;6193340;23;20095;-85
2021/07/25 13:59:58;;;;;;;0.55;0.55;;;26.70;65.00;;;;;;6168548;23;20052;-83
2021/07/25 14:02:24;;;;;;;0.50;0.50;;;26.70;65.10;;;;;;6168845;23;20016;-85
2021/07/25 14:04:53;;;;;;;1.55;0.90;;;26.60;65.20;;;;;;6215467;23;20008;-83
2021/07/25 14:07:19;;;;;;;0.90;0.70;;;26.70;65.20;;;;;;6193857;23;20095;-85
2021/07/25 14:09:44;;;;;;;0.50;0.50;;;26.60;65.10;;;;;;6218734;23;20020;-84
2021/07/25 14:12:10;;;;;;;0.60;0.60;;;26.70;65.10;;;;;;6218391;23;20018;-82
2021/07/25 14:14:36;;;;;;;0.98;0.60;;;26.60;65.00;;;;;;6193226;23;20012;-84
2021/07/25 14:17:05;;;;;;;0.75;0.60;;;26.60;64.80;;;;;;6218419;23;20096;-84
2021/07/25 14:19:31;;;;;;;0.60;0.60;;;26.60;64.60;;;;;;6245355;23;20094;-84
2021/07/25 14:21:57;;;;;;;0.80;0.50;;;26.60;64.60;;;;;;6244546;23;20043;-84
2021/07/25 14:24:22;;;;;;;0.60;0.60;;;26.70;64.50;;;;;;6168541;23;20004;-84
2021/07/25 14:26:48;;;;;;;0.50;0.50;;;26.80;64.30;;;;;;6244968;23;20028;-84
2021/07/25 14:29:14;;;;;;;0.60;0.60;;;26.80;64.20;;;;;;6193155;23;20015;-85
2021/07/25 14:31:39;;;;;;;1.63;0.70;;;26.90;64.10;;;;;;6217925;23;20018;-85
2021/07/25 14:34:05;;;;;;;1.23;0.70;;;27.00;63.90;;;;;;6193337;23;20487;-83
2021/07/25 14:36:31;;;;;;;1.35;0.90;;;27.00;63.80;;;;;;6193155;23;20054;-86
2021/07/25 14:38:57;;;;;;;1.02;0.73;;;27.00;63.50;;;;;;6193466;23;20004;-85
2021/07/25 14:41:23;;;;;;;0.70;0.70;;;27.00;63.60;;;;;;6218119;23;20099;-85
2021/07/25 14:43:52;;;;;;;1.50;0.90;;;27.00;63.50;;;;;;6217969;23;20490;-85
2021/07/25 14:46:17;;;;;;;1.13;0.80;;;27.00;63.30;;;;;;6219002;23;20012;-84
2021/07/25 14:48:44;;;;;;;0.80;0.80;;;27.00;63.10;;;;;;6234590;23;20000;-84
2021/07/25 14:51:13;;;;;;;1.60;1.08;;;26.90;63.20;;;;;;6226915;23;20012;-89
2021/07/25 14:53:38;;;;;;;1.10;1.00;;;26.80;63.20;;;;;;6215604;23;20011;-86
2021/07/25 14:56:08;;;;;;;1.00;0.93;;;26.70;63.20;;;;;;6218947;23;20008;-85
2021/07/25 14:58:37;;;;;;;1.58;0.80;;;26.70;63.30;;;;;;6193621;23;20008;-86
2021/07/25 15:01:11;;;;;;;1.15;0.90;;;26.70;63.30;;;;;;6194375;23;20475;-86
2021/07/25 15:03:38;;;;;;;2.13;0.93;;;26.70;63.10;;;;;;6196339;23;20030;-87
2021/07/25 15:06:04;;;;;;;1.83;0.98;;;26.70;62.90;;;;;;6222883;23;20008;-86
2021/07/25 15:08:29;;;;;;;1.27;0.80;;;26.70;62.70;;;;;;6219527;23;20485;-86
2021/07/25 15:10:55;;;;;;;1.10;0.80;;;26.70;62.70;;;;;;6195844;23;20345;-85
2021/07/25 15:13:21;;;;;;;0.80;0.80;;;26.70;62.50;;;;;;6193862;23;20030;-85
2021/07/25 15:15:48;;;;;;;1.27;0.80;;;26.80;62.50;;;;;;6194314;23;20011;-86
2021/07/25 15:18:14;;;;;;;0.70;0.70;;;26.80;62.30;;;;;;6218874;23;20012;-83
2021/07/25 15:20:43;;;;;;;0.90;0.70;;;26.90;62.20;;;;;;6194082;23;20020;-86
2021/07/25 15:23:08;;;;;;;0.95;0.60;;;26.90;62.10;;;;;;6194167;23;20016;-86
2021/07/25 15:25:34;;;;;;;0.55;0.55;;;26.90;62.00;;;;;;6219125;23;20015;-85
2021/07/25 15:28:00;;;;;;;0.77;0.60;;;27.00;61.90;;;;;;6246005;23;20154;-86
2021/07/25 15:30:25;;;;;;;0.70;0.60;;;27.00;61.70;;;;;;6195463;23;20375;-86
2021/07/25 15:32:51;;;;;;;2.58;0.82;;;27.00;61.60;;;;;;6219197;23;20325;-86
2021/07/25 15:35:17;;;;;;;0.60;0.60;;;26.90;61.60;;;;;;6246664;23;20008;-86
2021/07/25 15:37:42;;;;;;;0.50;0.50;;;26.80;61.60;;;;;;6219235;23;20019;-83
2021/07/25 15:40:08;;;;;;;0.75;0.63;;;26.80;61.70;;;;;;6223462;23;20016;-86
2021/07/25 15:42:34;;;;;;;1.55;0.80;;;26.90;61.40;;;;;;6214373;23;20011;-86
2021/07/25 15:45:00;;;;;;;1.02;0.70;;;26.90;61.20;;;;;;6169034;23;20027;-86
2021/07/25 15:47:25;;;;;;;0.80;0.60;;;26.90;61.10;;;;;;6218978;23;20024;-83
2021/07/25 15:49:51;;;;;;;0.70;0.70;;;27.00;61.80;;;;;;6194231;23;20004;-85
2021/07/25 15:52:17;;;;;;;0.43;0.43;;;27.00;61.10;;;;;;6193871;23;20428;-85
2021/07/25 15:54:43;;;;;;;0.93;0.60;;;26.90;61.20;;;;;;6193653;23;20046;-85
2021/07/25 15:57:09;;;;;;;0.60;0.50;;;26.90;61.20;;;;;;6219042;23;20440;-86
2021/07/25 15:59:36;;;;;;;0.50;0.50;;;27.10;61.10;;;;;;6193609;23;20012;-85
2021/07/25 16:02:03;;;;;;;1.00;0.82;;;27.10;60.80;;;;;;6211354;23;20005;-85
2021/07/25 16:04:30;;;;;;;0.73;0.70;;;27.00;60.60;;;;;;6193912;23;20095;-86
2021/07/25 16:06:55;;;;;;;0.90;0.70;;;27.00;60.50;;;;;;6246396;23;20026;-86
2021/07/25 16:09:21;;;;;;;1.17;0.80;;;26.90;60.50;;;;;;6193611;23;20012;-86
2021/07/25 16:11:47;;;;;;;0.98;0.88;;;26.80;60.50;;;;;;6190222;23;20012;-86
2021/07/25 16:14:13;;;;;;;0.65;0.65;;;26.80;60.50;;;;;;6169286;23;20026;-85
2021/07/25 16:16:39;;;;;;;0.80;0.70;;;26.90;60.50;;;;;;6193608;23;20008;-86
2021/07/25 16:19:05;;;;;;;0.85;0.70;;;27.00;60.40;;;;;;6245358;23;20015;-86
2021/07/25 16:21:30;;;;;;;0.63;0.63;;;27.00;60.10;;;;;;6194343;23;20016;-86
2021/07/25 16:23:57;;;;;;;0.65;0.57;;;26.90;60.10;;;;;;6245573;23;20040;-85
2021/07/25 16:26:25;;;;;;;1.05;0.77;;;26.80;60.00;;;;;;6168710;23;20008;-85
2021/07/25 16:28:51;;;;;;;0.73;0.70;;;26.80;60.10;;;;;;6210609;23;20016;-85
2021/07/25 16:31:19;;;;;;;0.70;0.70;;;26.80;60.00;;;;;;6217992;23;20016;-85
2021/07/25 16:33:46;;;;;;;0.73;0.70;;;26.90;59.90;;;;;;6245901;23;20023;-85
2021/07/25 16:36:14;;;;;;;0.65;0.60;;;26.80;59.60;;;;;;6219061;23;20040;-85
2021/07/25 16:38:40;;;;;;;0.93;0.80;;;26.80;59.50;;;;;;6194228;23;20008;-86
2021/07/25 16:41:10;;;;;;;0.52;0.50;;;26.70;59.30;;;;;;6200796;23;20012;-83
2021/07/25 16:43:35;;;;;;;0.60;0.60;;;26.80;59.20;;;;;;6253245;22;20439;-85
2021/07/25 16:46:02;;;;;;;0.60;0.60;;;26.80;59.00;;;;;;6244879;23;20254;-85
2021/07/25 16:48:28;;;;;;;0.52;0.50;;;26.80;59.00;;;;;;6246207;22;20008;-84
2021/07/25 16:50:55;;;;;;;0.90;0.70;;;26.80;58.90;;;;;;6246839;22;20008;-84
2021/07/25 16:53:21;;;;;;;0.60;0.50;;;26.80;58.80;;;;;;6219438;23;20486;-84
2021/07/25 16:55:47;;;;;;;0.40;0.40;;;26.80;58.80;;;;;;6219202;23;20389;-85
2021/07/25 16:58:12;;;;;;;0.50;0.50;;;26.60;58.70;;;;;;6219309;23;20032;-85
2021/07/25 17:00:42;;;;;;;1.08;0.95;;;26.60;58.80;;;;;;6220195;23;20066;-82
2021/07/25 17:03:08;;;;;;;1.20;1.00;;;26.70;58.70;;;;;;6247277;23;20012;-83
2021/07/25 17:05:34;;;;;;;0.88;0.70;;;26.40;59.00;;;;;;6246632;22;20023;-86
2021/07/25 17:08:00;;;;;;;1.55;1.17;;;26.30;59.70;;;;;;6247332;23;20008;-82
2021/07/25 17:10:26;;;;;;;1.45;1.25;;;26.10;60.10;;;;;;6246460;23;20035;-84
2021/07/25 17:12:52;;;;;;;1.77;1.20;;;26.00;60.40;;;;;;6245572;23;20035;-82
2021/07/25 17:15:18;;;;;;;1.20;1.10;;;25.80;60.70;;;;;;6243993;23;20427;-81
2021/07/25 17:17:44;;;;;;;1.55;1.23;;;25.80;61.10;;;;;;6193520;23;20015;-82
2021/07/25 17:20:11;;;;;;;1.88;1.30;;;25.70;61.20;;;;;;6245151;23;20344;-82
2021/07/25 17:22:37;;;;;;;1.98;1.20;;;25.60;61.60;;;;;;6231209;23;20004;-84
2021/07/25 17:25:03;;;;;;;1.52;1.30;;;25.60;61.80;;;;;;6227808;23;20008;-85
2021/07/25 17:27:31;;;;;;;1.48;1.20;;;25.50;62.00;;;;;;6229325;23;20008;-85
2021/07/25 17:29:57;;;;;;;1.10;1.00;;;25.40;62.20;;;;;;6255234;23;20011;-85
2021/07/25 17:32:22;;;;;;;1.38;1.20;;;25.40;62.30;;;;;;6226396;23;20071;-83
2021/07/25 17:34:48;;;;;;;1.20;1.10;;;25.40;62.40;;;;;;6251029;23;20020;-84
2021/07/25 17:37:14;;;;;;;1.45;1.02;;;25.40;62.40;;;;;;6256929;23;20008;-84
2021/07/25 17:39:40;;;;;;;0.90;0.90;;;25.40;62.50;;;;;;6252113;23;20015;-84
2021/07/25 17:42:05;;;;;;;0.77;0.77;;;25.40;62.60;;;;;;6252890;23;20012;-83
2021/07/25 17:44:37;;;;;;;1.20;1.10;;;25.50;62.60;;;;;;6258114;23;20015;-81